createdAt,value
2023-08-14T00:01:45.873Z,101059.34
2023-08-14T00:04:19.584Z,101062.51
2023-08-14T00:06:53.129Z,101065.45
2023-08-14T00:09:26.861Z,101060.55
2023-08-14T00:12:00.728Z,101069.09
2023-08-14T00:14:34.943Z,101065.79
2023-08-14T00:17:08.952Z,101059.23
2023-08-14T00:19:43.115Z,101061.34
2023-08-14T00:22:17.313Z,101065.31
2023-08-14T00:24:50.912Z,101061.45
2023-08-14T00:27:26.246Z,101061.93
2023-08-14T00:30:00.260Z,101066.98
2023-08-14T00:32:34.048Z,101062.88
2023-08-14T00:35:09.884Z,101059.84
2023-08-14T00:37:48.956Z,101061.12
2023-08-14T00:40:23.133Z,101061.00
2023-08-14T00:42:56.426Z,101057.73
2023-08-14T00:45:45.289Z,101059.03
2023-08-14T00:48:21.229Z,101054.91
2023-08-14T00:50:56.062Z,101057.02
2023-08-14T00:53:31.646Z,101052.11
2023-08-14T00:56:07.505Z,101057.70
2023-08-14T00:58:42.098Z,101052.79
2023-08-14T01:01:16.519Z,101050.56
2023-08-14T01:03:51.653Z,101049.18
2023-08-14T01:06:25.259Z,101045.91
2023-08-14T01:08:59.434Z,101049.06
2023-08-14T01:11:46.157Z,101037.13
2023-08-14T01:14:25.239Z,101044.61
2023-08-14T01:17:02.197Z,101038.05
2023-08-14T01:19:42.540Z,101043.65
2023-08-14T01:22:25.607Z,101040.62
2023-08-14T01:25:21.046Z,101048.10
2023-08-14T01:27:57.059Z,101047.52
2023-08-14T01:30:31.591Z,101043.40
2023-08-14T01:33:05.951Z,101045.50
2023-08-14T01:35:45.308Z,101038.73
2023-08-14T01:38:25.403Z,101047.02
2023-08-14T01:41:08.672Z,101049.36
2023-08-14T01:43:48.004Z,101047.10
2023-08-14T01:46:22.593Z,101046.52
2023-08-14T01:48:58.667Z,101049.66
2023-08-14T01:51:35.125Z,101044.74
2023-08-14T01:54:10.265Z,101046.84
2023-08-14T01:56:44.314Z,101049.75
2023-08-14T01:59:18.402Z,101047.52
2023-08-14T02:01:52.214Z,101046.12
2023-08-14T02:04:26.016Z,101043.64
2023-08-14T02:07:01.868Z,101039.56
2023-08-14T02:09:36.286Z,101042.47
2023-08-14T02:12:11.770Z,101048.30
2023-08-14T02:14:46.165Z,101043.63
2023-08-14T02:17:20.080Z,101046.77
2023-08-14T02:19:54.024Z,101042.66
2023-08-14T02:22:27.156Z,101046.63
2023-08-14T02:25:00.849Z,101050.58
2023-08-14T02:27:35.894Z,101049.98
2023-08-14T02:30:11.597Z,101049.63
2023-08-14T02:32:45.423Z,101047.40
2023-08-14T02:35:19.449Z,101051.34
2023-08-14T02:37:53.472Z,101050.75
2023-08-14T02:40:27.310Z,101048.52
2023-08-14T02:43:04.567Z,101048.77
2023-08-14T02:45:40.154Z,101046.28
2023-08-14T02:48:14.005Z,101042.20
2023-08-14T02:50:48.181Z,101050.71
2023-08-14T02:53:21.616Z,101050.12
2023-08-14T02:55:55.779Z,101049.52
2023-08-14T02:58:31.506Z,101044.36
2023-08-14T03:01:05.660Z,101048.09
2023-08-14T03:03:39.927Z,101040.48
2023-08-14T03:06:13.928Z,101050.42
2023-08-14T03:08:48.270Z,101045.26
2023-08-14T03:11:21.934Z,101039.53
2023-08-14T03:13:56.448Z,101047.80
2023-08-14T03:16:30.196Z,101049.69
2023-08-14T03:19:03.718Z,101052.58
2023-08-14T03:21:38.183Z,101048.25
2023-08-14T03:24:12.725Z,101050.34
2023-08-14T03:26:46.614Z,101053.02
2023-08-14T03:29:20.832Z,101054.07
2023-08-14T03:31:55.040Z,101057.00
2023-08-14T03:34:28.863Z,101059.68
2023-08-14T03:37:02.993Z,101065.05
2023-08-14T03:39:36.865Z,101064.22
2023-08-14T03:42:10.786Z,101062.58
2023-08-14T03:44:44.782Z,101071.67
2023-08-14T03:47:18.820Z,101070.87
2023-08-14T03:49:52.851Z,101060.58
2023-08-14T03:52:27.726Z,101064.52
2023-08-14T03:55:01.986Z,101069.88
2023-08-14T03:57:36.927Z,101069.08
2023-08-14T04:00:15.012Z,101073.41
2023-08-14T04:02:49.769Z,101071.52
2023-08-14T04:05:24.448Z,101071.52
2023-08-14T04:07:58.538Z,101072.13
2023-08-14T04:10:33.429Z,101074.59
2023-08-14T04:13:06.768Z,101082.41
2023-08-14T04:15:40.782Z,101076.00
2023-08-14T04:18:15.158Z,101082.80
2023-08-14T04:20:49.977Z,101078.84
2023-08-14T04:23:25.908Z,101084.00
2023-08-14T04:25:59.894Z,101086.84
2023-08-14T04:28:34.853Z,101091.52
2023-08-14T04:31:08.727Z,101097.87
2023-08-14T04:33:42.733Z,101098.63
2023-08-14T04:36:18.007Z,101100.16
2023-08-14T04:38:52.916Z,101106.07
2023-08-14T04:41:28.951Z,101103.88
2023-08-14T04:44:03.034Z,101106.63
2023-08-14T04:49:16.362Z,101110.67
2023-08-14T04:51:50.427Z,101115.09
2023-08-14T04:54:25.632Z,101109.97
2023-08-14T04:56:59.649Z,101113.72
2023-08-14T04:59:33.275Z,101115.40
2023-08-14T05:02:07.293Z,101118.34
2023-08-14T05:04:41.351Z,101114.04
2023-08-14T05:07:15.329Z,101112.17
2023-08-14T05:09:50.991Z,101117.32
2023-08-14T05:12:24.967Z,101115.69
2023-08-14T05:14:59.201Z,101118.13
2023-08-14T05:17:33.055Z,101120.58
2023-08-14T05:20:08.367Z,101126.76
2023-08-14T05:22:44.177Z,101118.98
2023-08-14T05:25:18.624Z,101127.63
2023-08-14T05:27:51.884Z,101120.89
2023-08-14T05:30:25.701Z,101121.20
2023-08-14T05:32:59.571Z,101124.17
2023-08-14T05:35:34.368Z,101124.66
2023-08-14T05:38:08.761Z,101126.81
2023-08-14T05:40:42.181Z,101137.28
2023-08-14T05:43:16.547Z,101143.50
2023-08-14T05:45:51.566Z,101138.35
2023-08-14T05:48:25.430Z,101133.40
2023-08-14T05:50:59.202Z,101141.48
2023-08-14T05:53:33.009Z,101133.83
2023-08-14T05:56:07.731Z,101139.43
2023-08-14T05:58:41.025Z,101136.94
2023-08-14T06:01:16.090Z,101134.12
2023-08-14T06:03:50.620Z,101145.67
2023-08-14T06:06:25.167Z,101143.67
2023-08-14T06:09:01.046Z,101143.56
2023-08-14T06:11:36.808Z,101147.23
2023-08-14T06:14:10.886Z,101144.91
2023-08-14T06:16:45.221Z,101139.32
2023-08-14T06:19:19.250Z,101144.31
2023-08-14T06:21:53.589Z,101155.23
2023-08-14T06:24:30.024Z,101151.30
2023-08-14T06:27:03.209Z,101154.63
2023-08-14T06:29:36.514Z,101159.58
2023-08-14T06:32:11.824Z,101157.70
2023-08-14T06:34:46.120Z,101163.77
2023-08-14T06:37:19.928Z,101162.41
2023-08-14T06:39:53.412Z,101162.17
2023-08-14T06:42:26.672Z,101161.08
2023-08-14T06:45:00.534Z,101155.34
2023-08-14T06:47:34.002Z,101166.22
2023-08-14T06:50:10.084Z,101167.02
2023-08-14T06:52:43.668Z,101166.14
2023-08-14T06:55:18.060Z,101167.17
2023-08-14T06:57:51.027Z,101163.89
2023-08-14T07:00:25.199Z,101163.81
2023-08-14T07:02:58.992Z,101164.83
2023-08-14T07:05:32.857Z,101169.94
2023-08-14T07:08:07.997Z,101175.86
2023-08-14T07:10:41.881Z,101173.33
2023-08-14T07:13:15.766Z,101173.81
2023-08-14T07:15:50.386Z,101166.92
2023-08-14T07:18:24.279Z,101160.56
2023-08-14T07:21:00.033Z,101166.48
2023-08-14T07:23:33.808Z,101166.60
2023-08-14T07:26:13.134Z,101172.52
2023-08-14T07:28:46.948Z,101168.30
2023-08-14T07:31:20.533Z,101172.54
2023-08-14T07:33:55.150Z,101175.16
2023-08-14T07:36:29.174Z,101170.95
2023-08-14T07:39:02.461Z,101170.25
2023-08-14T07:41:36.574Z,101169.34
2023-08-14T07:44:10.788Z,101169.21
2023-08-14T07:46:44.795Z,101175.33
2023-08-14T07:49:18.504Z,101175.19
2023-08-14T07:51:52.820Z,101170.41
2023-08-14T07:54:26.772Z,101162.34
2023-08-14T07:57:00.422Z,101164.39
2023-08-14T07:59:35.302Z,101169.73
2023-08-14T08:02:09.411Z,101172.81
2023-08-14T08:04:44.025Z,101163.92
2023-08-14T08:07:18.672Z,101175.52
2023-08-14T08:09:54.295Z,101163.80
2023-08-14T08:12:27.963Z,101159.76
2023-08-14T08:15:02.722Z,101152.51
2023-08-14T08:17:36.985Z,101158.28
2023-08-14T08:20:13.633Z,101150.98
2023-08-14T08:22:47.496Z,101146.32
2023-08-14T08:25:21.628Z,101148.84
2023-08-14T08:27:54.815Z,101145.63
2023-08-14T08:30:28.485Z,101139.60
2023-08-14T08:33:03.702Z,101132.16
2023-08-14T08:35:38.143Z,101146.62
2023-08-14T08:38:12.369Z,101144.63
2023-08-14T08:40:51.897Z,101147.36
2023-08-14T08:43:25.907Z,101144.53
2023-08-14T08:46:05.674Z,101145.26
2023-08-14T08:48:44.796Z,101141.62
2023-08-14T08:51:19.897Z,101131.39
2023-08-14T08:53:53.833Z,101131.30
2023-08-14T08:56:28.071Z,101134.73
2023-08-14T08:59:02.581Z,101137.67
2023-08-14T09:01:36.859Z,101136.77
2023-08-14T09:04:11.379Z,101136.13
2023-08-14T09:06:47.440Z,101137.43
2023-08-14T09:09:22.378Z,101138.42
2023-08-14T09:11:56.479Z,101136.48
2023-08-14T09:14:30.844Z,101132.95
2023-08-14T09:17:06.183Z,101129.57
2023-08-14T09:19:42.768Z,101124.53
2023-08-14T09:22:16.743Z,101129.55
2023-08-14T09:24:52.050Z,101123.53
2023-08-14T09:27:28.456Z,101107.99
2023-08-14T09:30:03.512Z,101119.80
2023-08-14T09:32:38.213Z,101118.97
2023-08-14T09:35:13.127Z,101113.89
2023-08-14T09:37:47.773Z,101107.23
2023-08-14T09:40:22.669Z,101108.80
2023-08-14T09:42:55.577Z,101092.25
2023-08-14T09:45:36.150Z,101097.72
2023-08-14T09:48:11.214Z,101105.27
2023-08-14T09:50:50.308Z,101096.16
2023-08-14T09:53:23.611Z,101095.28
2023-08-14T09:55:57.186Z,101090.84
2023-08-14T09:58:30.906Z,101084.14
2023-08-14T10:01:05.489Z,101090.27
2023-08-14T10:03:41.787Z,101093.28
2023-08-14T10:06:17.024Z,101082.52
2023-08-14T10:08:53.534Z,101081.17
2023-08-14T10:11:30.411Z,101082.72
2023-08-14T10:14:08.325Z,101071.70
2023-08-14T10:16:42.425Z,101068.72
2023-08-14T10:19:21.308Z,101056.34
2023-08-14T10:21:56.982Z,101059.48
2023-08-14T10:24:32.074Z,101050.66
2023-08-14T10:27:06.738Z,101055.14
2023-08-14T10:29:41.026Z,101060.66
2023-08-14T10:32:14.947Z,101053.99
2023-08-14T10:34:50.898Z,101052.52
2023-08-14T10:37:50.268Z,101046.09
2023-08-14T10:40:30.780Z,101052.41
2023-08-14T10:43:06.495Z,101049.78
2023-08-14T10:45:41.711Z,101054.61
2023-08-14T10:48:15.929Z,101046.80
2023-08-14T10:50:59.259Z,101046.59
2023-08-14T10:53:34.712Z,101037.98
2023-08-14T10:56:11.522Z,101041.99
2023-08-14T10:58:53.219Z,101046.13
2023-08-14T11:01:39.344Z,101036.83
2023-08-14T11:04:12.914Z,101048.09
2023-08-14T11:07:13.374Z,101049.00
2023-08-14T11:09:50.031Z,101029.91
2023-08-14T11:12:23.821Z,101025.75
2023-08-14T11:14:57.893Z,101031.03
2023-08-14T11:17:31.525Z,101038.73
2023-08-14T11:20:11.991Z,101022.30
2023-08-14T11:22:48.135Z,101020.77
2023-08-14T11:25:22.469Z,101019.62
2023-08-14T11:27:56.946Z,101010.42
2023-08-14T11:30:35.827Z,101006.42
2023-08-14T11:33:10.260Z,101006.76
2023-08-14T11:35:45.630Z,101011.70
2023-08-14T11:38:22.671Z,101002.02
2023-08-14T11:40:56.691Z,100999.09
2023-08-14T11:43:30.720Z,100997.80
2023-08-14T11:46:05.532Z,100991.91
2023-08-14T11:48:41.229Z,100988.55
2023-08-14T11:51:17.129Z,100994.41
2023-08-14T11:53:50.433Z,100999.48
2023-08-14T11:56:24.319Z,100987.53
2023-08-14T11:59:06.991Z,100989.06
2023-08-14T12:01:42.770Z,100987.91
2023-08-14T12:04:16.730Z,100983.88
2023-08-14T12:06:50.953Z,100986.64
2023-08-14T12:09:27.176Z,100981.03
2023-08-14T12:12:01.993Z,100979.87
2023-08-14T12:14:44.245Z,100978.97
2023-08-14T12:17:21.214Z,100982.97
2023-08-14T12:19:58.737Z,100986.44
2023-08-14T12:22:33.227Z,100974.15
2023-08-14T12:25:09.922Z,100974.60
2023-08-14T12:27:43.915Z,100968.71
2023-08-14T12:30:18.710Z,100979.42
2023-08-14T12:32:52.258Z,100973.53
2023-08-14T12:35:25.977Z,100965.44
2023-08-14T12:38:00.188Z,100970.26
2023-08-14T12:40:35.327Z,100960.81
2023-08-14T12:43:08.522Z,100967.95
2023-08-14T12:45:42.245Z,100963.32
2023-08-14T12:48:17.230Z,100956.19
2023-08-14T12:50:50.511Z,100959.06
2023-08-14T12:53:24.083Z,100951.30
2023-08-14T12:56:03.582Z,100951.78
2023-08-14T12:58:38.840Z,100958.31
2023-08-14T13:01:12.877Z,100957.94
2023-08-14T13:03:46.677Z,100959.20
2023-08-14T13:06:21.414Z,100955.63
2023-08-14T13:08:55.458Z,100954.12
2023-08-14T13:11:29.767Z,100953.31
2023-08-14T13:14:03.168Z,100950.66
2023-08-14T13:16:36.950Z,100952.26
2023-08-14T13:19:10.876Z,100942.80
2023-08-14T13:21:44.672Z,100942.44
2023-08-14T13:24:18.609Z,100949.13
2023-08-14T13:26:52.725Z,100938.06
2023-08-14T13:32:06.160Z,100934.86
2023-08-14T13:34:39.703Z,100938.33
2023-08-14T13:37:13.631Z,100938.15
2023-08-14T13:39:48.943Z,100928.89
2023-08-14T13:42:22.536Z,100931.33
2023-08-14T13:44:58.586Z,100932.09
2023-08-14T13:47:48.017Z,100933.06
2023-08-14T13:50:33.179Z,100924.95
2023-08-14T13:53:08.594Z,100923.23
2023-08-14T13:55:44.941Z,100916.09
2023-08-14T13:58:17.715Z,100924.38
2023-08-14T14:00:52.572Z,100915.65
2023-08-14T14:03:26.515Z,100914.02
2023-08-14T14:06:00.625Z,100903.67
2023-08-14T14:08:35.420Z,100911.05
2023-08-14T14:11:09.294Z,100911.22
2023-08-14T14:13:42.630Z,100910.56
2023-08-14T14:16:16.641Z,100911.05
2023-08-14T14:18:50.523Z,100908.41
2023-08-14T14:21:24.264Z,100908.86
2023-08-14T14:23:57.657Z,100911.28
2023-08-14T14:26:31.855Z,100902.33
2023-08-14T14:29:04.943Z,100909.47
2023-08-14T14:31:39.163Z,100910.39
2023-08-14T14:34:12.857Z,100908.55
2023-08-14T14:36:47.229Z,100915.08
2023-08-14T14:39:21.706Z,100909.34
2023-08-14T14:41:56.192Z,100909.56
2023-08-14T14:44:29.836Z,100909.10
2023-08-14T14:47:03.867Z,100898.30
2023-08-14T14:49:37.830Z,100898.17
2023-08-14T14:52:12.157Z,100904.27
2023-08-14T14:54:45.719Z,100908.03
2023-08-14T14:57:20.199Z,100901.27
2023-08-14T14:59:54.087Z,100907.92
2023-08-14T15:02:30.134Z,100905.86
2023-08-14T15:05:07.120Z,100904.57
2023-08-14T15:07:42.461Z,100908.01
2023-08-14T15:10:17.541Z,100902.36
2023-08-14T15:12:51.241Z,100912.09
2023-08-14T15:15:25.416Z,100903.37
2023-08-14T15:17:59.451Z,100913.92
2023-08-14T15:20:33.436Z,100902.80
2023-08-14T15:23:09.741Z,100902.19
2023-08-14T15:25:44.129Z,100902.08
2023-08-14T15:28:17.210Z,100904.37
2023-08-14T15:30:51.108Z,100905.05
2023-08-14T15:33:24.707Z,100902.15
2023-08-14T15:35:59.126Z,100900.28
2023-08-14T15:38:33.286Z,100902.45
2023-08-14T15:41:11.516Z,100902.66
2023-08-14T15:43:44.732Z,100898.80
2023-08-14T15:46:18.431Z,100905.18
2023-08-14T15:48:54.349Z,100908.95
2023-08-14T15:51:28.099Z,100904.80
2023-08-14T15:54:01.707Z,100899.14
2023-08-14T15:56:36.417Z,100902.44
2023-08-14T15:59:10.207Z,100898.75
2023-08-14T16:01:44.150Z,100909.60
2023-08-14T16:04:18.102Z,100899.94
2023-08-14T16:06:52.098Z,100908.26
2023-08-14T16:09:26.391Z,100913.92
2023-08-14T16:12:01.213Z,100911.20
2023-08-14T16:14:35.449Z,100908.98
2023-08-14T16:17:09.849Z,100910.63
2023-08-14T16:19:43.854Z,100917.45
2023-08-14T16:22:17.759Z,100917.63
2023-08-14T16:24:51.752Z,100906.52
2023-08-14T16:27:25.684Z,100913.95
2023-08-14T16:29:59.952Z,100906.05
2023-08-14T16:32:33.941Z,100907.70
2023-08-14T16:35:09.894Z,100907.40
2023-08-14T16:37:44.210Z,100906.62
2023-08-14T16:40:18.871Z,100908.89
2023-08-14T16:42:52.525Z,100896.33
2023-08-14T16:45:26.820Z,100897.91
2023-08-14T16:48:01.179Z,100899.20
2023-08-14T16:50:38.290Z,100903.58
2023-08-14T16:53:13.159Z,100903.09
2023-08-14T16:55:47.164Z,100910.52
2023-08-14T16:58:20.833Z,100911.66
2023-08-14T17:00:55.097Z,100914.06
2023-08-14T17:03:28.652Z,100918.70
2023-08-14T17:06:06.871Z,100917.55
2023-08-14T17:08:40.776Z,100921.90
2023-08-14T17:11:14.912Z,100923.48
2023-08-14T17:13:48.166Z,100920.73
2023-08-14T17:16:21.973Z,100923.12
2023-08-14T17:18:55.914Z,100923.56
2023-08-14T17:21:30.451Z,100930.02
2023-08-14T17:24:04.074Z,100927.20
2023-08-14T17:26:37.943Z,100929.58
2023-08-14T17:29:11.344Z,100931.97
2023-08-14T17:31:45.055Z,100930.81
2023-08-14T17:34:19.490Z,100937.55
2023-08-14T17:36:53.986Z,100934.94
2023-08-14T17:39:28.462Z,100940.55
2023-08-14T17:42:02.228Z,100937.44
2023-08-14T17:44:36.311Z,100947.20
2023-08-14T17:47:10.833Z,100945.67
2023-08-14T17:49:44.435Z,100948.54
2023-08-14T17:52:18.469Z,100954.46
2023-08-14T17:54:52.669Z,100960.34
2023-08-14T17:57:26.261Z,100960.77
2023-08-14T18:00:00.432Z,100963.94
2023-08-14T18:02:34.740Z,100962.44
2023-08-14T18:05:10.318Z,100963.67
2023-08-14T18:07:45.454Z,100974.22
2023-08-14T18:10:20.097Z,100972.18
2023-08-14T18:12:53.552Z,100973.08
2023-08-14T18:15:27.719Z,100964.48
2023-08-14T18:18:02.115Z,100966.03
2023-08-14T18:20:36.508Z,100971.89
2023-08-14T18:23:10.869Z,100972.31
2023-08-14T18:25:44.679Z,100974.32
2023-08-14T18:28:18.509Z,100979.09
2023-08-14T18:30:52.491Z,100985.45
2023-08-14T18:33:26.298Z,100986.66
2023-08-14T18:36:01.480Z,100994.95
2023-08-14T18:38:35.340Z,101001.30
2023-08-14T18:41:09.586Z,100991.27
2023-08-14T18:43:42.484Z,100988.63
2023-08-14T18:46:17.176Z,100990.66
2023-08-14T18:48:50.617Z,100994.27
2023-08-14T18:51:24.841Z,100989.22
2023-08-14T18:53:59.774Z,100995.88
2023-08-14T18:56:33.346Z,100992.71
2023-08-14T18:59:11.544Z,100997.75
2023-08-14T19:01:46.700Z,100989.92
2023-08-14T19:04:29.200Z,100990.83
2023-08-14T19:07:10.977Z,100999.34
2023-08-14T19:09:45.891Z,101001.36
2023-08-14T19:12:20.048Z,101006.37
2023-08-14T19:14:54.085Z,101004.31
2023-08-14T19:17:27.714Z,101007.12
2023-08-14T19:20:02.334Z,101011.81
2023-08-14T19:22:36.848Z,101010.78
2023-08-14T19:25:13.029Z,101007.84
2023-08-14T19:27:47.953Z,101013.06
2023-08-14T19:30:22.170Z,101021.03
2023-08-14T19:32:56.048Z,101018.89
2023-08-14T19:35:30.071Z,101015.92
2023-08-14T19:38:03.994Z,101022.79
2023-08-14T19:40:40.923Z,101031.55
2023-08-14T19:43:14.883Z,101031.28
2023-08-14T19:45:48.478Z,101031.59
2023-08-14T19:48:22.490Z,101043.66
2023-08-14T19:50:58.173Z,101044.23
2023-08-14T19:53:31.175Z,101049.44
2023-08-14T19:56:05.673Z,101038.31
2023-08-14T19:58:40.228Z,101050.91
2023-08-14T20:01:15.016Z,101043.30
2023-08-14T20:03:49.008Z,101051.23
2023-08-14T20:06:24.275Z,101053.70
2023-08-14T20:09:00.252Z,101051.86
2023-08-14T20:11:39.112Z,101053.54
2023-08-14T20:14:13.777Z,101052.48
2023-08-14T20:16:49.484Z,101050.34
2023-08-14T20:19:23.649Z,101049.56
2023-08-14T20:21:57.484Z,101052.86
2023-08-14T20:24:31.602Z,101046.89
2023-08-14T20:27:06.759Z,101055.11
2023-08-14T20:29:40.253Z,101050.20
2023-08-14T20:32:13.689Z,101065.48
2023-08-14T20:34:47.764Z,101054.37
2023-08-14T20:37:22.396Z,101064.48
2023-08-14T20:39:57.131Z,101064.52
2023-08-14T20:42:30.724Z,101071.63
2023-08-14T20:45:05.724Z,101066.22
2023-08-14T20:47:39.921Z,101066.27
2023-08-14T20:50:15.355Z,101070.12
2023-08-14T20:52:49.311Z,101061.98
2023-08-14T20:55:23.784Z,101069.39
2023-08-14T20:57:57.864Z,101070.78
2023-08-14T21:00:31.773Z,101077.35
2023-08-14T21:03:05.363Z,101066.23
2023-08-14T21:05:39.414Z,101070.34
2023-08-14T21:08:13.043Z,101073.38
2023-08-14T21:10:47.487Z,101081.83
2023-08-14T21:13:21.260Z,101079.13
2023-08-14T21:15:58.647Z,101085.69
2023-08-14T21:18:32.293Z,101086.00
2023-08-14T21:21:06.924Z,101092.80
2023-08-14T21:23:40.533Z,101098.26
2023-08-14T21:26:14.274Z,101095.84
2023-08-14T21:28:47.826Z,101094.46
2023-08-14T21:31:21.679Z,101097.48
2023-08-14T21:33:55.747Z,101093.41
2023-08-14T21:36:29.495Z,101092.88
2023-08-14T21:39:05.036Z,101090.71
2023-08-14T21:41:38.688Z,101085.57
2023-08-14T21:44:11.988Z,101084.20
2023-08-14T21:46:45.619Z,101083.41
2023-08-14T21:49:19.898Z,101080.95
2023-08-14T21:51:53.986Z,101072.27
2023-08-14T21:54:27.561Z,101075.27
2023-08-14T21:57:02.035Z,101077.41
2023-08-14T21:59:35.475Z,101077.66
2023-08-14T22:02:09.519Z,101084.41
2023-08-14T22:04:43.688Z,101087.66
2023-08-14T22:07:18.039Z,101094.98
2023-08-14T22:09:52.062Z,101087.09
2023-08-14T22:12:26.911Z,101086.28
2023-08-14T22:15:00.328Z,101081.09
2023-08-14T22:17:36.432Z,101071.59
2023-08-14T22:20:13.355Z,101084.59
2023-08-14T22:22:47.550Z,101087.53
2023-08-14T22:25:22.939Z,101075.84
2023-08-14T22:27:56.882Z,101079.33
2023-08-14T22:30:30.224Z,101074.97
2023-08-14T22:33:05.330Z,101074.39
2023-08-14T22:35:39.137Z,101079.54
2023-08-14T22:38:12.997Z,101080.59
2023-08-14T22:40:47.147Z,101082.45
2023-08-14T22:43:21.369Z,101078.91
2023-08-14T22:45:55.296Z,101077.80
2023-08-14T22:48:29.033Z,101066.94
2023-08-14T22:51:02.364Z,101075.03
2023-08-14T22:53:35.693Z,101078.52
2023-08-14T22:56:09.983Z,101074.97
2023-08-14T22:58:43.958Z,101073.86
2023-08-14T23:01:17.532Z,101064.87
2023-08-14T23:03:51.484Z,101066.71
2023-08-14T23:06:25.618Z,101056.92
2023-08-14T23:09:00.010Z,101049.84
2023-08-14T23:11:35.169Z,101040.29
2023-08-14T23:14:08.986Z,101028.06
2023-08-14T23:16:43.156Z,101026.39
2023-08-14T23:19:17.036Z,101022.02
2023-08-14T23:21:51.155Z,101017.64
2023-08-14T23:24:24.389Z,101011.91
2023-08-14T23:26:58.502Z,100999.97
2023-08-14T23:29:32.457Z,100994.52
2023-08-14T23:32:07.336Z,100998.81
2023-08-14T23:34:41.202Z,101004.49
2023-08-14T23:37:14.542Z,100997.70
2023-08-14T23:39:48.973Z,100997.97
2023-08-14T23:42:22.756Z,100999.84
2023-08-14T23:44:56.573Z,100994.94
2023-08-14T23:47:30.590Z,100996.50
2023-08-14T23:50:04.626Z,100994.06
2023-08-14T23:52:38.602Z,100988.66
2023-08-14T23:55:12.887Z,100983.48
2023-08-14T23:57:46.485Z,100981.06
